createdAt,value
2019-04-30T00:00:18.319Z,37.17
2019-04-30T00:02:51.295Z,29.85
2019-04-30T00:07:50.831Z,34.00
2019-04-30T00:10:17.782Z,32.23
2019-04-30T00:12:46.358Z,35.98
2019-04-30T00:15:19.470Z,33.38
2019-04-30T00:17:53.016Z,33.53
2019-04-30T00:20:19.982Z,36.75
2019-04-30T00:22:50.398Z,38.20
2019-04-30T00:25:19.692Z,31.60
2019-04-30T00:27:48.870Z,33.70
2019-04-30T00:30:17.292Z,30.02
2019-04-30T00:32:47.251Z,31.10
2019-04-30T00:35:19.514Z,31.57
2019-04-30T00:37:51.753Z,31.85
2019-04-30T00:40:16.073Z,30.45
2019-04-30T00:42:45.788Z,32.38
2019-04-30T00:45:15.484Z,31.30
2019-04-30T00:47:47.834Z,30.85
2019-04-30T00:50:15.004Z,32.98
2019-04-30T00:52:43.670Z,32.73
2019-04-30T00:55:12.178Z,35.50
2019-04-30T00:57:43.572Z,30.80
2019-04-30T01:00:19.626Z,32.42
2019-04-30T01:03:05.861Z,34.88
2019-04-30T01:05:31.392Z,32.00
2019-04-30T01:07:59.975Z,34.05
2019-04-30T01:10:28.506Z,38.85
2019-04-30T01:12:59.858Z,32.63
2019-04-30T01:15:29.054Z,32.55
2019-04-30T01:17:59.294Z,36.10
2019-04-30T01:20:32.572Z,35.95
2019-04-30T01:23:03.020Z,38.05
2019-04-30T01:25:31.880Z,38.20
2019-04-30T01:28:00.659Z,42.10
2019-04-30T01:30:30.107Z,34.67
2019-04-30T01:33:00.924Z,36.77
2019-04-30T01:35:32.594Z,36.53
2019-04-30T01:37:59.573Z,37.93
2019-04-30T01:40:29.122Z,39.20
2019-04-30T01:42:59.207Z,40.03
2019-04-30T01:45:31.531Z,42.60
2019-04-30T01:48:00.721Z,41.13
2019-04-30T01:50:29.215Z,44.20
2019-04-30T01:52:59.091Z,40.60
2019-04-30T01:55:32.062Z,45.08
2019-04-30T01:58:14.441Z,40.60
2019-04-30T02:00:53.364Z,41.23
2019-04-30T02:03:21.808Z,44.08
2019-04-30T02:05:50.226Z,43.48
2019-04-30T02:08:19.544Z,43.48
2019-04-30T02:10:49.192Z,46.18
2019-04-30T02:13:18.868Z,49.35
2019-04-30T02:15:49.193Z,56.77
2019-04-30T02:18:19.389Z,60.15
2019-04-30T02:20:49.517Z,59.88
2019-04-30T02:23:19.620Z,67.27
2019-04-30T02:25:49.042Z,61.42
2019-04-30T02:28:19.016Z,61.55
2019-04-30T02:30:50.395Z,66.42
2019-04-30T02:33:19.939Z,54.42
2019-04-30T02:35:55.985Z,53.73
2019-04-30T02:38:32.139Z,56.42
2019-04-30T02:41:00.721Z,64.55
2019-04-30T02:43:31.997Z,60.70
2019-04-30T02:46:02.463Z,63.35
2019-04-30T02:48:32.938Z,60.33
2019-04-30T02:51:03.617Z,61.65
2019-04-30T02:54:00.540Z,60.88
2019-04-30T02:56:30.091Z,59.60
2019-04-30T02:59:00.457Z,64.45
2019-04-30T03:01:30.484Z,57.98
2019-04-30T03:03:59.827Z,55.70
2019-04-30T03:06:30.373Z,58.17
2019-04-30T03:09:01.111Z,56.47
2019-04-30T03:11:30.088Z,63.20
2019-04-30T03:13:59.373Z,56.20
2019-04-30T03:16:35.531Z,54.08
2019-04-30T03:19:11.453Z,56.02
2019-04-30T03:21:41.514Z,56.02
2019-04-30T03:24:11.023Z,57.60
2019-04-30T03:26:40.176Z,55.12
2019-04-30T03:29:11.221Z,57.38
2019-04-30T03:31:43.745Z,52.23
2019-04-30T03:34:16.772Z,57.25
2019-04-30T03:36:40.373Z,53.98
2019-04-30T03:39:10.911Z,54.20
2019-04-30T03:41:41.501Z,58.00
2019-04-30T03:44:20.936Z,54.23
2019-04-30T03:46:40.258Z,54.27
2019-04-30T03:49:12.539Z,60.15
2019-04-30T03:51:40.264Z,57.90
2019-04-30T03:54:10.184Z,59.42
2019-04-30T03:56:39.784Z,61.23
2019-04-30T03:59:10.662Z,60.90
2019-04-30T04:01:50.054Z,61.73
2019-04-30T04:04:20.285Z,60.98
2019-04-30T04:06:52.871Z,63.73
2019-04-30T04:09:25.665Z,62.23
2019-04-30T04:11:54.113Z,64.45
2019-04-30T04:14:22.601Z,65.95
2019-04-30T04:16:51.186Z,65.83
2019-04-30T04:19:19.811Z,70.08
2019-04-30T04:21:51.973Z,65.42
2019-04-30T04:24:20.684Z,59.80
2019-04-30T04:26:50.317Z,69.67
2019-04-30T04:29:19.660Z,66.20
2019-04-30T04:31:50.292Z,65.85
2019-04-30T04:34:19.751Z,68.80
2019-04-30T04:36:50.643Z,74.42
2019-04-30T04:39:20.090Z,71.47
2019-04-30T04:41:50.285Z,73.80
2019-04-30T04:44:20.441Z,70.90
2019-04-30T04:46:50.460Z,71.80
2019-04-30T04:49:20.604Z,75.42
2019-04-30T04:51:49.563Z,69.72
2019-04-30T04:54:20.195Z,77.90
2019-04-30T04:56:50.396Z,68.35
2019-04-30T04:59:20.086Z,65.65
2019-04-30T05:01:49.073Z,67.90
2019-04-30T05:04:19.945Z,63.63
2019-04-30T05:06:49.759Z,71.90
2019-04-30T05:09:19.463Z,71.70
2019-04-30T05:11:48.773Z,70.08
2019-04-30T05:14:18.965Z,72.60
2019-04-30T05:16:48.826Z,73.52
2019-04-30T05:19:18.705Z,73.22
2019-04-30T05:21:47.217Z,74.62
2019-04-30T05:24:15.637Z,74.87
2019-04-30T05:26:44.056Z,67.82
2019-04-30T05:29:12.491Z,65.00
2019-04-30T05:31:40.920Z,66.50
2019-04-30T05:34:10.314Z,66.77
2019-04-30T05:36:39.263Z,69.12
2019-04-30T05:39:08.696Z,67.67
2019-04-30T05:41:38.617Z,68.75
2019-04-30T05:44:09.052Z,63.92
2019-04-30T05:46:39.623Z,68.42
2019-04-30T05:49:09.024Z,65.85
2019-04-30T05:51:38.776Z,69.70
2019-04-30T05:54:08.974Z,65.47
2019-04-30T05:56:39.499Z,65.40
2019-04-30T05:59:09.007Z,65.83
2019-04-30T06:01:39.368Z,68.00
2019-04-30T06:04:09.399Z,64.65
2019-04-30T06:06:38.840Z,64.70
2019-04-30T06:09:31.611Z,69.32
2019-04-30T06:12:00.619Z,63.60
2019-04-30T06:14:46.641Z,71.00
2019-04-30T06:17:09.766Z,60.15
2019-04-30T06:19:39.144Z,60.45
2019-04-30T06:22:10.491Z,57.25
2019-04-30T06:24:39.537Z,55.28
2019-04-30T06:27:10.564Z,62.25
2019-04-30T06:29:39.185Z,57.25
2019-04-30T06:32:08.681Z,57.27
2019-04-30T06:34:39.525Z,62.03
2019-04-30T06:37:09.594Z,55.60
2019-04-30T06:39:38.736Z,59.67
2019-04-30T06:42:12.486Z,56.25
2019-04-30T06:44:41.613Z,57.10
2019-04-30T06:47:09.205Z,56.70
2019-04-30T06:49:39.256Z,64.27
2019-04-30T06:52:19.565Z,55.30
2019-04-30T06:54:39.701Z,55.12
2019-04-30T06:57:09.727Z,58.85
2019-04-30T06:59:39.607Z,52.15
2019-04-30T07:02:09.097Z,60.05
2019-04-30T07:04:39.980Z,56.83
2019-04-30T07:07:09.094Z,52.13
2019-04-30T07:09:53.132Z,55.65
2019-04-30T07:12:29.816Z,55.40
2019-04-30T07:14:55.854Z,54.73
2019-04-30T07:17:24.281Z,52.73
2019-04-30T07:19:56.593Z,54.53
2019-04-30T07:22:36.584Z,50.00
2019-04-30T07:24:53.120Z,51.70
2019-04-30T07:27:24.076Z,52.75
2019-04-30T07:29:51.701Z,49.95
2019-04-30T07:32:20.239Z,52.40
2019-04-30T07:34:49.491Z,52.50
2019-04-30T07:37:24.186Z,46.18
2019-04-30T07:39:49.320Z,48.45
2019-04-30T07:42:19.293Z,46.00
2019-04-30T07:44:50.016Z,51.42
2019-04-30T07:47:19.397Z,47.78
2019-04-30T07:49:52.978Z,46.15
2019-04-30T07:52:20.806Z,46.20
2019-04-30T07:54:51.604Z,41.70
2019-04-30T07:57:19.241Z,41.10
2019-04-30T07:59:49.856Z,49.63
2019-04-30T08:02:20.740Z,46.80
2019-04-30T08:04:55.569Z,45.00
2019-04-30T08:07:24.087Z,41.30
2019-04-30T08:09:52.673Z,42.27
2019-04-30T08:12:29.612Z,40.70
2019-04-30T08:14:51.264Z,40.00
2019-04-30T08:17:19.704Z,42.27
2019-04-30T08:19:48.961Z,37.40
2019-04-30T08:22:19.475Z,39.00
2019-04-30T08:24:49.138Z,43.87
2019-04-30T08:27:19.652Z,46.13
2019-04-30T08:29:49.926Z,45.88
2019-04-30T08:32:19.061Z,39.38
2019-04-30T08:34:49.947Z,44.38
2019-04-30T08:37:20.094Z,41.28
2019-04-30T08:39:49.709Z,44.10
2019-04-30T08:42:30.400Z,45.35
2019-04-30T08:44:48.624Z,43.13
2019-04-30T08:47:20.913Z,48.28
2019-04-30T08:49:49.691Z,43.02
2019-04-30T08:52:20.120Z,40.73
2019-04-30T08:54:49.412Z,45.65
2019-04-30T08:57:19.105Z,43.70
2019-04-30T08:59:49.431Z,42.48
2019-04-30T09:02:19.775Z,46.60
2019-04-30T09:04:49.697Z,45.58
2019-04-30T09:07:19.659Z,47.38
2019-04-30T09:09:48.953Z,48.75
2019-04-30T09:12:19.400Z,50.15
2019-04-30T09:14:49.129Z,44.40
2019-04-30T09:17:19.665Z,46.63
2019-04-30T09:19:49.003Z,46.37
2019-04-30T09:22:19.475Z,48.85
2019-04-30T09:24:49.713Z,49.98
2019-04-30T09:27:19.542Z,46.83
2019-04-30T09:29:49.155Z,45.60
2019-04-30T09:32:19.281Z,49.30
2019-04-30T09:34:48.792Z,47.08
2019-04-30T09:37:18.687Z,46.73
2019-04-30T09:39:49.435Z,43.68
2019-04-30T09:42:19.441Z,44.93
2019-04-30T09:44:49.294Z,42.20
2019-04-30T09:47:20.090Z,38.17
2019-04-30T09:49:49.355Z,46.83
2019-04-30T09:52:19.267Z,39.88
2019-04-30T09:54:49.966Z,40.48
2019-04-30T09:57:19.309Z,39.67
2019-04-30T09:59:48.656Z,41.45
2019-04-30T10:02:19.123Z,40.65
2019-04-30T10:04:47.916Z,38.50
2019-04-30T10:07:16.791Z,36.48
2019-04-30T10:09:45.212Z,37.35
2019-04-30T10:12:17.116Z,39.45
2019-04-30T10:14:45.531Z,36.97
2019-04-30T10:17:30.780Z,43.80
2019-04-30T10:19:59.294Z,36.93
2019-04-30T10:22:27.725Z,37.48
2019-04-30T10:24:56.167Z,37.85
2019-04-30T10:27:25.385Z,35.83
2019-04-30T10:29:53.924Z,37.73
2019-04-30T10:32:22.364Z,36.50
2019-04-30T10:34:50.786Z,38.70
2019-04-30T10:37:19.419Z,37.75
2019-04-30T10:39:49.008Z,44.73
2019-04-30T10:42:17.601Z,33.35
2019-04-30T10:44:46.034Z,34.05
2019-04-30T10:47:15.003Z,38.67
2019-04-30T10:49:43.450Z,37.15
2019-04-30T10:52:11.873Z,37.58
2019-04-30T10:54:40.303Z,36.20
2019-04-30T10:57:08.841Z,31.60
2019-04-30T10:59:37.609Z,33.02
2019-04-30T11:02:06.331Z,36.55
2019-04-30T11:04:34.821Z,37.48
2019-04-30T11:07:03.531Z,32.88
2019-04-30T11:09:33.596Z,33.92
2019-04-30T11:12:03.145Z,31.40
2019-04-30T11:14:33.370Z,34.10
2019-04-30T11:17:02.007Z,30.35
2019-04-30T11:19:30.935Z,29.98
2019-04-30T11:21:59.727Z,31.55
2019-04-30T11:24:36.634Z,30.15
2019-04-30T11:26:59.979Z,29.30
2019-04-30T11:29:30.696Z,29.90
2019-04-30T11:32:06.723Z,30.27
2019-04-30T11:34:35.352Z,31.77
2019-04-30T11:37:04.049Z,27.25
2019-04-30T11:39:32.661Z,30.37
2019-04-30T11:42:01.224Z,26.87
2019-04-30T11:44:31.425Z,34.10
2019-04-30T11:47:02.985Z,29.23
2019-04-30T11:49:31.621Z,28.32
2019-04-30T11:52:00.044Z,34.43
2019-04-30T11:54:29.901Z,26.80
2019-04-30T11:56:58.878Z,26.48
2019-04-30T11:59:29.749Z,27.05
2019-04-30T12:02:00.342Z,29.18
2019-04-30T12:04:29.923Z,23.87
2019-04-30T12:07:00.300Z,28.32
2019-04-30T12:09:30.385Z,24.77
2019-04-30T12:11:59.005Z,25.20
2019-04-30T12:14:29.606Z,23.62
2019-04-30T12:16:57.606Z,25.12
2019-04-30T12:19:26.050Z,25.25
2019-04-30T12:21:54.489Z,20.88
2019-04-30T12:24:22.914Z,25.45
2019-04-30T12:26:51.361Z,26.48
2019-04-30T12:29:19.785Z,24.90
2019-04-30T12:31:48.260Z,24.18
2019-04-30T12:34:16.696Z,20.23
2019-04-30T12:36:45.139Z,22.27
2019-04-30T12:39:13.569Z,22.98
2019-04-30T12:41:42.020Z,22.25
2019-04-30T12:44:10.408Z,23.70
2019-04-30T12:46:38.859Z,23.20
2019-04-30T12:49:11.558Z,23.50
2019-04-30T12:51:48.844Z,23.38
2019-04-30T12:54:22.469Z,25.50
2019-04-30T12:57:01.539Z,21.55
2019-04-30T12:59:30.161Z,25.77
2019-04-30T13:01:59.325Z,20.72
2019-04-30T13:04:29.336Z,24.32
2019-04-30T13:07:01.648Z,24.82
2019-04-30T13:09:30.139Z,21.57
2019-04-30T13:12:00.434Z,22.67
2019-04-30T13:14:30.146Z,21.25
2019-04-30T13:16:59.078Z,21.25
2019-04-30T13:19:27.583Z,19.10
2019-04-30T13:21:58.517Z,20.55
2019-04-30T13:24:26.274Z,21.70
2019-04-30T13:26:59.403Z,24.30
2019-04-30T13:32:09.577Z,21.05
2019-04-30T13:34:42.614Z,22.42
2019-04-30T13:37:11.139Z,22.73
2019-04-30T13:39:57.309Z,20.82
2019-04-30T13:42:42.548Z,19.00
2019-04-30T13:45:11.317Z,21.52
2019-04-30T13:47:39.830Z,21.42
2019-04-30T13:50:09.320Z,20.90
2019-04-30T13:52:38.961Z,23.15
2019-04-30T13:55:10.777Z,21.87
2019-04-30T13:57:38.436Z,19.48
2019-04-30T14:00:15.247Z,20.92
2019-04-30T14:02:51.372Z,21.77
2019-04-30T14:05:19.855Z,21.50
2019-04-30T14:07:50.011Z,18.30
2019-04-30T14:10:19.567Z,24.32
2019-04-30T14:12:50.121Z,21.87
2019-04-30T14:15:19.243Z,19.37
2019-04-30T14:17:49.383Z,21.30
2019-04-30T14:20:18.176Z,18.82
2019-04-30T14:22:46.590Z,19.60
2019-04-30T14:25:15.456Z,23.62
2019-04-30T14:27:51.764Z,18.35
2019-04-30T14:30:14.984Z,21.77
2019-04-30T14:32:43.418Z,18.75
2019-04-30T14:35:12.213Z,21.73
2019-04-30T14:37:42.872Z,19.70
2019-04-30T14:40:13.060Z,21.57
2019-04-30T14:42:44.227Z,18.32
2019-04-30T14:45:21.528Z,16.17
2019-04-30T14:47:55.206Z,17.42
2019-04-30T14:50:25.957Z,16.67
2019-04-30T14:53:02.650Z,14.87
2019-04-30T14:55:49.599Z,16.12
2019-04-30T14:58:22.644Z,13.15
2019-04-30T15:03:39.495Z,15.23
2019-04-30T15:06:08.732Z,13.98
2019-04-30T15:08:38.924Z,16.57
2019-04-30T15:11:09.084Z,16.45
2019-04-30T15:13:39.321Z,14.25
2019-04-30T15:16:08.233Z,15.98
2019-04-30T15:18:38.754Z,15.18
2019-04-30T15:21:07.137Z,14.63
2019-04-30T15:23:58.517Z,13.60
2019-04-30T15:26:25.168Z,16.32
2019-04-30T15:28:53.863Z,15.23
2019-04-30T15:31:22.456Z,17.50
2019-04-30T15:34:02.911Z,14.47
2019-04-30T15:36:29.340Z,15.35
2019-04-30T15:38:59.688Z,16.80
2019-04-30T15:41:28.207Z,16.77
2019-04-30T15:43:57.437Z,17.82
2019-04-30T15:46:25.956Z,18.17
2019-04-30T15:48:54.378Z,18.57
2019-04-30T15:51:22.906Z,13.43
2019-04-30T15:53:51.401Z,18.12
2019-04-30T15:56:19.833Z,16.07
2019-04-30T15:58:59.194Z,16.15
2019-04-30T16:01:29.083Z,15.45
2019-04-30T16:03:57.997Z,15.58
2019-04-30T16:06:28.451Z,18.25
2019-04-30T16:08:58.255Z,14.40
2019-04-30T16:11:40.360Z,13.95
2019-04-30T16:14:10.455Z,16.30
2019-04-30T16:16:40.534Z,15.15
2019-04-30T16:19:09.209Z,15.45
2019-04-30T16:21:37.685Z,14.73
2019-04-30T16:24:06.125Z,17.42
2019-04-30T16:26:46.626Z,16.87
2019-04-30T16:29:05.242Z,18.37
2019-04-30T16:31:33.660Z,15.28
2019-04-30T16:34:02.140Z,18.30
2019-04-30T16:36:30.553Z,13.68
2019-04-30T16:38:59.018Z,14.45
2019-04-30T16:41:31.679Z,14.30
2019-04-30T16:43:59.402Z,12.10
2019-04-30T16:46:29.524Z,14.05
2019-04-30T16:48:58.736Z,13.22
2019-04-30T16:51:28.862Z,14.65
2019-04-30T16:53:58.660Z,15.65
2019-04-30T16:56:29.744Z,14.83
2019-04-30T16:59:05.521Z,12.63
2019-04-30T17:01:35.164Z,12.03
2019-04-30T17:04:06.203Z,11.43
2019-04-30T17:06:36.255Z,13.65
2019-04-30T17:09:11.098Z,12.60
2019-04-30T17:11:41.151Z,13.18
2019-04-30T17:14:10.875Z,10.53
2019-04-30T17:16:39.294Z,12.47
2019-04-30T17:19:09.091Z,13.70
2019-04-30T17:21:37.636Z,11.85
2019-04-30T17:24:06.044Z,11.57
2019-04-30T17:26:34.489Z,11.53
2019-04-30T17:29:03.028Z,13.38
2019-04-30T17:31:31.470Z,11.85
2019-04-30T17:33:59.978Z,13.43
2019-04-30T17:36:29.791Z,16.67
2019-04-30T17:38:58.403Z,12.05
2019-04-30T17:41:29.606Z,11.78
2019-04-30T17:43:58.955Z,9.75
2019-04-30T17:46:28.538Z,8.33
2019-04-30T17:48:58.855Z,10.60
2019-04-30T17:51:27.447Z,10.20
2019-04-30T17:54:12.937Z,8.75
2019-04-30T17:56:43.498Z,12.40
2019-04-30T17:59:12.766Z,8.80
2019-04-30T18:01:42.846Z,9.08
2019-04-30T18:04:11.283Z,9.35
2019-04-30T18:06:39.749Z,7.97
2019-04-30T18:09:10.828Z,11.88
2019-04-30T18:11:39.634Z,15.80
2019-04-30T18:14:08.822Z,9.45
2019-04-30T18:16:38.666Z,9.30
2019-04-30T18:19:11.909Z,8.95
2019-04-30T18:21:45.053Z,13.20
2019-04-30T18:24:15.201Z,8.73
2019-04-30T18:26:48.321Z,9.53
2019-04-30T18:29:16.735Z,10.08
2019-04-30T18:31:45.266Z,18.55
2019-04-30T18:34:13.724Z,15.88
2019-04-30T18:36:42.186Z,17.73
2019-04-30T18:39:10.789Z,9.95
2019-04-30T18:41:39.378Z,8.03
2019-04-30T18:44:09.403Z,13.32
2019-04-30T18:46:39.011Z,13.05
2019-04-30T18:49:07.637Z,14.55
2019-04-30T18:51:39.431Z,14.98
2019-04-30T18:54:06.316Z,11.38
2019-04-30T18:56:34.741Z,11.48
2019-04-30T18:59:03.252Z,15.88
2019-04-30T19:01:31.668Z,12.45
2019-04-30T19:04:01.188Z,12.50
2019-04-30T19:06:29.807Z,10.98
2019-04-30T19:09:06.088Z,11.95
2019-04-30T19:11:51.488Z,14.78
2019-04-30T19:14:30.315Z,15.78
2019-04-30T19:17:12.545Z,21.42
2019-04-30T19:19:48.633Z,23.55
2019-04-30T19:22:18.713Z,30.90
2019-04-30T19:24:58.255Z,47.95
2019-04-30T19:27:18.613Z,39.25
2019-04-30T19:29:49.045Z,30.65
2019-04-30T19:32:17.466Z,21.75
2019-04-30T19:34:46.016Z,30.60
2019-04-30T19:37:14.493Z,37.88
2019-04-30T19:39:42.985Z,38.70
2019-04-30T19:42:12.301Z,40.33
2019-04-30T19:44:40.799Z,19.27
2019-04-30T19:47:09.852Z,19.00
2019-04-30T19:49:38.963Z,12.95
2019-04-30T19:52:11.496Z,13.53
2019-04-30T19:54:39.299Z,12.55
2019-04-30T19:57:10.963Z,13.43
2019-04-30T19:59:39.876Z,15.10
2019-04-30T20:02:08.410Z,15.90
2019-04-30T20:04:39.743Z,17.55
2019-04-30T20:07:08.803Z,14.73
2019-04-30T20:09:37.458Z,14.55
2019-04-30T20:12:05.941Z,16.10
2019-04-30T20:14:34.383Z,15.88
2019-04-30T20:17:02.921Z,19.23
2019-04-30T20:19:31.345Z,19.02
2019-04-30T20:21:59.984Z,15.20
2019-04-30T20:24:29.588Z,17.37
2019-04-30T20:27:06.432Z,19.23
2019-04-30T20:29:28.990Z,15.95
2019-04-30T20:31:59.011Z,17.67
2019-04-30T20:34:29.316Z,17.82
2019-04-30T20:36:58.367Z,19.12
2019-04-30T20:39:41.741Z,18.55
2019-04-30T20:42:10.253Z,34.73
2019-04-30T20:44:39.011Z,22.00
2019-04-30T20:47:08.953Z,22.42
2019-04-30T20:49:39.095Z,21.85
2019-04-30T20:52:07.793Z,18.92
2019-04-30T20:54:36.201Z,20.70
2019-04-30T20:57:04.873Z,17.87
2019-04-30T20:59:33.302Z,17.35
2019-04-30T21:02:01.864Z,21.37
2019-04-30T21:04:30.416Z,20.82
2019-04-30T21:06:59.492Z,21.60
2019-04-30T21:09:28.065Z,19.67
2019-04-30T21:11:56.494Z,22.17
2019-04-30T21:14:24.923Z,18.40
2019-04-30T21:16:53.329Z,20.88
2019-04-30T21:19:21.861Z,24.32
2019-04-30T21:21:51.048Z,20.72
2019-04-30T21:24:19.526Z,23.40
2019-04-30T21:26:47.965Z,25.68
2019-04-30T21:29:16.496Z,19.30
2019-04-30T21:32:04.995Z,23.25
2019-04-30T21:34:51.384Z,22.85
2019-04-30T21:37:19.878Z,21.50
2019-04-30T21:39:50.076Z,17.27
2019-04-30T21:42:18.720Z,19.25
2019-04-30T21:44:47.162Z,20.35
2019-04-30T21:47:15.670Z,21.00
2019-04-30T21:49:44.142Z,20.68
2019-04-30T21:52:12.591Z,20.82
2019-04-30T21:54:41.108Z,20.85
2019-04-30T21:57:09.544Z,20.50
2019-04-30T21:59:38.801Z,18.10
2019-04-30T22:02:08.118Z,17.37
2019-04-30T22:04:39.215Z,17.50
2019-04-30T22:07:09.411Z,17.32
2019-04-30T22:09:37.935Z,20.17
2019-04-30T22:12:06.434Z,18.70
2019-04-30T22:14:34.873Z,23.42
2019-04-30T22:17:03.372Z,20.23
2019-04-30T22:19:31.821Z,20.12
2019-04-30T22:22:00.242Z,17.77
2019-04-30T22:24:30.406Z,18.62
2019-04-30T22:27:00.473Z,20.68
2019-04-30T22:29:39.131Z,18.32
2019-04-30T22:32:00.594Z,20.25
2019-04-30T22:34:29.070Z,17.80
2019-04-30T22:36:58.620Z,20.15
2019-04-30T22:39:31.668Z,19.30
2019-04-30T22:42:02.097Z,21.40
2019-04-30T22:44:30.520Z,20.52
2019-04-30T22:47:00.750Z,19.30
2019-04-30T22:49:29.245Z,19.80
2019-04-30T22:51:57.696Z,19.70
2019-04-30T22:54:26.116Z,20.75
2019-04-30T22:56:54.566Z,18.48
2019-04-30T22:59:25.955Z,17.75
2019-04-30T23:02:14.422Z,17.55
2019-04-30T23:04:44.499Z,17.65
2019-04-30T23:07:12.964Z,17.77
2019-04-30T23:09:41.386Z,18.52
2019-04-30T23:12:10.040Z,16.73
2019-04-30T23:14:38.532Z,20.62
2019-04-30T23:17:07.180Z,22.22
2019-04-30T23:19:35.595Z,20.25
2019-04-30T23:22:04.287Z,21.70
2019-04-30T23:24:32.712Z,21.00
2019-04-30T23:27:01.176Z,22.42
2019-04-30T23:29:29.584Z,21.00
2019-04-30T23:31:58.034Z,24.77
2019-04-30T23:34:26.436Z,19.95
2019-04-30T23:36:54.856Z,21.45
2019-04-30T23:39:25.303Z,18.85
2019-04-30T23:41:53.485Z,18.00
2019-04-30T23:44:21.877Z,22.37
2019-04-30T23:46:50.307Z,23.75
2019-04-30T23:49:18.723Z,22.40
2019-04-30T23:51:47.434Z,21.62
2019-04-30T23:54:15.839Z,22.17
2019-04-30T23:56:44.287Z,19.77
2019-04-30T23:59:12.982Z,21.87
